createdAt,value
2019-03-06T00:00:06.934Z,12.93
2019-03-06T00:02:38.129Z,10.27
2019-03-06T00:05:09.689Z,14.90
2019-03-06T00:07:40.784Z,9.93
2019-03-06T00:10:27.424Z,13.90
2019-03-06T00:12:58.544Z,10.60
2019-03-06T00:15:29.397Z,13.93
2019-03-06T00:18:00.198Z,10.43
2019-03-06T00:20:31.159Z,8.83
2019-03-06T00:23:02.620Z,13.27
2019-03-06T00:25:33.721Z,15.57
2019-03-06T00:28:04.563Z,12.57
2019-03-06T00:30:36.079Z,13.40
2019-03-06T00:33:06.724Z,12.63
2019-03-06T00:35:41.469Z,9.80
2019-03-06T00:38:12.329Z,15.00
2019-03-06T00:40:51.601Z,13.50
2019-03-06T00:43:22.481Z,16.43
2019-03-06T00:45:53.669Z,16.17
2019-03-06T00:48:24.774Z,16.50
2019-03-06T00:50:55.507Z,14.57
2019-03-06T00:53:26.753Z,12.30
2019-03-06T00:55:57.994Z,14.20
2019-03-06T00:58:29.058Z,15.10
2019-03-06T01:01:00.059Z,14.27
2019-03-06T01:03:31.117Z,10.83
2019-03-06T01:06:02.424Z,12.47
2019-03-06T01:08:33.763Z,10.13
2019-03-06T01:11:04.914Z,12.03
2019-03-06T01:13:35.953Z,21.33
2019-03-06T01:16:06.804Z,19.47
2019-03-06T01:18:38.264Z,12.53
2019-03-06T01:21:09.383Z,10.13
2019-03-06T01:23:40.189Z,11.53
2019-03-06T01:26:11.509Z,17.73
2019-03-06T01:28:42.684Z,12.50
2019-03-06T01:31:14.143Z,11.70
2019-03-06T01:34:09.969Z,7.83
2019-03-06T01:36:48.614Z,15.40
2019-03-06T01:39:28.240Z,18.17
2019-03-06T01:42:20.874Z,15.87
2019-03-06T01:44:55.203Z,13.63
2019-03-06T01:47:26.149Z,10.50
2019-03-06T01:49:57.323Z,15.60
2019-03-06T01:52:28.863Z,14.27
2019-03-06T01:54:59.668Z,10.47
2019-03-06T01:57:30.654Z,16.63
2019-03-06T02:00:01.809Z,17.13
2019-03-06T02:02:32.970Z,16.03
2019-03-06T02:05:04.060Z,15.50
2019-03-06T02:07:34.923Z,12.53
2019-03-06T02:10:06.644Z,13.47
2019-03-06T02:12:37.369Z,12.13
2019-03-06T02:15:08.868Z,18.37
2019-03-06T02:17:40.115Z,12.43
2019-03-06T02:20:13.289Z,14.53
2019-03-06T02:22:44.608Z,16.90
2019-03-06T02:25:15.804Z,10.43
2019-03-06T02:27:47.023Z,13.47
2019-03-06T02:30:20.314Z,14.03
2019-03-06T02:32:51.328Z,15.57
2019-03-06T02:35:22.688Z,11.27
2019-03-06T02:37:53.835Z,10.90
2019-03-06T02:40:24.628Z,20.30
2019-03-06T02:42:55.399Z,18.27
2019-03-06T02:45:26.810Z,10.57
2019-03-06T02:47:58.013Z,23.97
2019-03-06T02:50:28.958Z,12.03
2019-03-06T02:53:00.143Z,16.57
2019-03-06T02:55:31.240Z,9.50
2019-03-06T02:58:20.977Z,18.30
2019-03-06T03:01:13.349Z,10.00
2019-03-06T03:04:09.160Z,12.93
2019-03-06T03:06:46.508Z,11.33
2019-03-06T03:09:21.337Z,10.40
2019-03-06T03:11:52.269Z,14.67
2019-03-06T03:14:23.257Z,15.70
2019-03-06T03:16:54.496Z,14.53
2019-03-06T03:19:25.758Z,10.77
2019-03-06T03:21:56.607Z,13.03
2019-03-06T03:24:27.943Z,10.33
2019-03-06T03:26:59.081Z,14.13
2019-03-06T03:29:29.992Z,7.50
2019-03-06T03:32:01.025Z,13.83
2019-03-06T03:34:31.842Z,12.60
2019-03-06T03:37:02.728Z,17.40
2019-03-06T03:39:33.871Z,11.90
2019-03-06T03:42:04.798Z,11.93
2019-03-06T03:44:35.974Z,16.13
2019-03-06T03:47:06.853Z,18.37
2019-03-06T03:49:37.930Z,21.00
2019-03-06T03:52:08.781Z,12.37
2019-03-06T03:54:39.663Z,13.83
2019-03-06T03:57:10.764Z,10.60
2019-03-06T03:59:41.915Z,17.47
2019-03-06T04:02:13.039Z,12.67
2019-03-06T04:04:43.839Z,10.07
2019-03-06T04:07:14.643Z,16.83
2019-03-06T04:09:46.077Z,13.67
2019-03-06T04:12:17.014Z,19.40
2019-03-06T04:14:48.063Z,13.30
2019-03-06T04:17:18.918Z,16.67
2019-03-06T04:19:49.754Z,15.53
2019-03-06T04:22:20.813Z,18.80
2019-03-06T04:24:52.216Z,11.40
2019-03-06T04:27:23.500Z,19.33
2019-03-06T04:29:54.303Z,13.17
2019-03-06T04:32:25.629Z,17.07
2019-03-06T04:34:56.842Z,23.03
2019-03-06T04:37:28.138Z,16.83
2019-03-06T04:39:59.383Z,15.23
2019-03-06T04:42:30.173Z,18.50
2019-03-06T04:45:01.583Z,12.97
2019-03-06T04:47:32.478Z,15.37
2019-03-06T04:50:03.329Z,18.90
2019-03-06T04:52:34.187Z,17.43
2019-03-06T04:55:05.846Z,10.10
2019-03-06T04:57:37.039Z,14.13
2019-03-06T05:00:08.688Z,16.00
2019-03-06T05:02:39.629Z,15.30
2019-03-06T05:05:11.133Z,14.00
2019-03-06T05:07:42.369Z,13.97
2019-03-06T05:10:13.618Z,8.50
2019-03-06T05:12:44.714Z,7.37
2019-03-06T05:15:15.743Z,13.27
2019-03-06T05:18:08.696Z,13.30
2019-03-06T05:20:39.568Z,15.37
2019-03-06T05:23:10.499Z,14.67
2019-03-06T05:25:41.449Z,17.97
2019-03-06T05:28:12.342Z,16.00
2019-03-06T05:30:43.127Z,11.93
2019-03-06T05:33:15.030Z,12.10
2019-03-06T05:36:10.874Z,16.23
2019-03-06T05:38:46.743Z,14.90
2019-03-06T05:41:17.704Z,12.10
2019-03-06T05:43:48.618Z,15.03
2019-03-06T05:46:19.904Z,21.23
2019-03-06T05:48:50.884Z,13.70
2019-03-06T05:51:22.003Z,14.03
2019-03-06T05:53:52.834Z,14.30
2019-03-06T05:56:23.650Z,24.27
2019-03-06T05:58:54.400Z,12.87
2019-03-06T06:01:25.334Z,13.67
2019-03-06T06:03:56.178Z,11.93
2019-03-06T06:06:27.358Z,19.93
2019-03-06T06:08:58.173Z,17.90
2019-03-06T06:11:29.046Z,23.23
2019-03-06T06:14:00.630Z,18.23
2019-03-06T06:16:31.763Z,14.87
2019-03-06T06:19:02.631Z,14.77
2019-03-06T06:21:46.359Z,13.87
2019-03-06T06:24:23.784Z,15.73
2019-03-06T06:26:54.769Z,13.47
2019-03-06T06:29:25.618Z,19.90
2019-03-06T06:31:56.544Z,17.60
2019-03-06T06:34:27.503Z,22.60
2019-03-06T06:36:58.209Z,22.43
2019-03-06T06:39:29.004Z,20.43
2019-03-06T06:41:59.883Z,26.43
2019-03-06T06:44:30.703Z,28.40
2019-03-06T06:47:01.533Z,24.10
2019-03-06T06:49:32.588Z,16.07
2019-03-06T06:52:38.099Z,19.90
2019-03-06T06:55:45.380Z,23.07
2019-03-06T06:58:56.469Z,15.30
2019-03-06T07:01:45.168Z,21.90
2019-03-06T07:05:05.204Z,18.27
2019-03-06T07:07:54.754Z,21.13
2019-03-06T07:10:41.678Z,15.10
2019-03-06T07:13:31.144Z,28.87
2019-03-06T07:16:35.423Z,15.93
2019-03-06T07:19:11.687Z,19.80
2019-03-06T07:21:59.714Z,16.80
2019-03-06T07:24:47.904Z,17.23
2019-03-06T07:27:32.353Z,18.13
2019-03-06T07:30:27.992Z,16.97
2019-03-06T07:33:14.798Z,17.60
2019-03-06T07:36:25.553Z,25.20
2019-03-06T07:39:17.968Z,16.10
2019-03-06T07:42:10.749Z,15.60
2019-03-06T07:45:00.358Z,14.83
2019-03-06T07:47:48.020Z,17.20
2019-03-06T07:50:50.095Z,14.27
2019-03-06T07:54:02.544Z,10.77
2019-03-06T07:56:36.674Z,11.27
2019-03-06T07:59:07.469Z,9.90
2019-03-06T08:01:44.903Z,12.17
2019-03-06T08:04:17.498Z,15.13
2019-03-06T08:06:54.083Z,12.70
2019-03-06T08:09:24.910Z,12.67
2019-03-06T08:12:00.985Z,14.00
2019-03-06T08:15:05.699Z,16.93
2019-03-06T08:18:04.211Z,10.53
2019-03-06T08:20:53.699Z,11.37
2019-03-06T08:23:47.356Z,11.47
2019-03-06T08:26:18.245Z,10.23
2019-03-06T08:28:49.183Z,13.40
2019-03-06T08:31:27.743Z,11.70
2019-03-06T08:33:58.654Z,11.63
2019-03-06T08:36:29.919Z,12.77
2019-03-06T08:39:00.814Z,12.73
2019-03-06T08:41:31.515Z,14.27
2019-03-06T08:44:02.449Z,16.80
2019-03-06T08:46:52.109Z,12.83
2019-03-06T08:49:41.650Z,15.40
2019-03-06T08:52:20.704Z,15.47
2019-03-06T08:55:10.931Z,28.47
2019-03-06T08:58:02.937Z,19.00
2019-03-06T09:00:58.424Z,15.93
2019-03-06T09:03:48.124Z,14.53
2019-03-06T09:06:25.474Z,13.37
2019-03-06T09:09:08.924Z,16.63
2019-03-06T09:12:01.129Z,19.90
2019-03-06T09:14:47.514Z,17.63
2019-03-06T09:17:40.597Z,17.50
2019-03-06T09:20:36.123Z,15.33
2019-03-06T09:23:23.035Z,19.40
2019-03-06T09:25:59.769Z,12.73
2019-03-06T09:28:36.701Z,19.93
2019-03-06T09:31:19.529Z,14.87
2019-03-06T09:34:04.634Z,15.53
2019-03-06T09:36:48.289Z,15.43
2019-03-06T09:39:41.503Z,15.10
2019-03-06T09:42:21.984Z,15.00
2019-03-06T09:45:01.783Z,17.90
2019-03-06T09:47:52.852Z,16.63
2019-03-06T09:50:45.228Z,18.13
2019-03-06T09:53:33.199Z,12.73
2019-03-06T09:56:11.473Z,21.50
2019-03-06T09:58:57.324Z,15.60
2019-03-06T10:01:55.936Z,12.77
2019-03-06T10:04:51.849Z,18.30
2019-03-06T10:07:32.760Z,13.27
2019-03-06T10:10:45.768Z,15.97
2019-03-06T10:13:26.448Z,22.03
2019-03-06T10:16:20.983Z,20.97
2019-03-06T10:19:16.290Z,23.70
2019-03-06T10:21:47.138Z,19.27
2019-03-06T10:24:17.942Z,19.10
2019-03-06T10:26:48.884Z,20.67
2019-03-06T10:29:19.682Z,22.93
2019-03-06T10:31:50.454Z,24.00
2019-03-06T10:34:21.339Z,28.07
2019-03-06T10:36:52.279Z,25.23
2019-03-06T10:39:23.134Z,23.40
2019-03-06T10:41:54.018Z,30.07
2019-03-06T10:44:29.454Z,30.27
2019-03-06T10:46:57.108Z,23.83
2019-03-06T10:49:28.239Z,27.60
2019-03-06T10:51:59.001Z,27.17
2019-03-06T10:54:29.834Z,23.97
2019-03-06T10:57:00.645Z,23.37
2019-03-06T10:59:31.634Z,24.80
2019-03-06T11:02:02.629Z,25.17
2019-03-06T11:04:49.408Z,22.13
2019-03-06T11:07:21.135Z,17.87
2019-03-06T11:09:51.929Z,19.30
2019-03-06T11:12:22.810Z,24.23
2019-03-06T11:14:53.779Z,22.37
2019-03-06T11:17:24.700Z,23.17
2019-03-06T11:19:55.688Z,21.10
2019-03-06T11:22:26.429Z,21.67
2019-03-06T11:24:57.134Z,17.13
2019-03-06T11:27:27.938Z,25.90
2019-03-06T11:29:58.964Z,25.37
2019-03-06T11:32:29.833Z,24.07
2019-03-06T11:35:00.634Z,20.87
2019-03-06T11:37:31.463Z,19.07
2019-03-06T11:40:02.349Z,15.90
2019-03-06T11:42:33.145Z,21.67
2019-03-06T11:45:04.158Z,13.73
2019-03-06T11:47:34.853Z,17.27
2019-03-06T11:50:06.299Z,24.80
2019-03-06T11:52:37.069Z,23.80
2019-03-06T11:55:08.340Z,20.60
2019-03-06T11:57:39.709Z,19.63
2019-03-06T12:00:20.774Z,19.83
2019-03-06T12:02:51.664Z,22.57
2019-03-06T12:05:22.439Z,23.23
2019-03-06T12:07:53.283Z,20.77
2019-03-06T12:10:24.539Z,22.03
2019-03-06T12:12:56.029Z,19.63
2019-03-06T12:15:26.843Z,18.87
2019-03-06T12:17:57.694Z,20.13
2019-03-06T12:20:28.528Z,21.27
2019-03-06T12:22:59.488Z,17.73
2019-03-06T12:25:30.518Z,17.03
2019-03-06T12:28:01.338Z,16.27
2019-03-06T12:30:32.311Z,18.80
2019-03-06T12:33:03.165Z,14.07
2019-03-06T12:35:33.923Z,18.20
2019-03-06T12:38:04.958Z,17.67
2019-03-06T12:40:36.339Z,19.40
2019-03-06T12:43:07.323Z,17.73
2019-03-06T12:45:38.233Z,15.20
2019-03-06T12:48:10.886Z,16.33
2019-03-06T12:50:41.718Z,14.27
2019-03-06T12:53:12.986Z,14.27
2019-03-06T12:55:43.968Z,12.83
2019-03-06T12:58:14.654Z,18.10
2019-03-06T13:00:45.318Z,12.80
2019-03-06T13:03:16.048Z,15.37
2019-03-06T13:05:46.833Z,16.53
2019-03-06T13:08:19.884Z,17.60
2019-03-06T13:10:50.018Z,16.13
2019-03-06T13:13:20.772Z,15.57
2019-03-06T13:15:51.529Z,13.93
2019-03-06T13:18:22.353Z,15.03
2019-03-06T13:20:53.693Z,17.40
2019-03-06T13:23:24.958Z,13.93
2019-03-06T13:25:56.079Z,13.37
2019-03-06T13:28:26.889Z,42.20
2019-03-06T13:30:57.633Z,24.23
2019-03-06T13:33:55.926Z,14.43
2019-03-06T13:36:26.888Z,14.03
2019-03-06T13:39:06.074Z,13.17
2019-03-06T13:41:30.054Z,16.73
2019-03-06T13:44:00.965Z,19.23
2019-03-06T13:46:31.919Z,16.57
2019-03-06T13:49:02.839Z,16.27
2019-03-06T13:51:33.789Z,18.53
2019-03-06T13:54:04.569Z,16.20
2019-03-06T13:56:35.475Z,17.50
2019-03-06T13:59:06.583Z,15.57
2019-03-06T14:01:37.238Z,19.30
2019-03-06T14:04:07.945Z,17.23
2019-03-06T14:06:38.829Z,21.60
2019-03-06T14:09:12.528Z,17.27
2019-03-06T14:11:43.354Z,17.97
2019-03-06T14:14:14.231Z,17.53
2019-03-06T14:16:45.124Z,11.77
2019-03-06T14:19:16.103Z,14.80
2019-03-06T14:21:47.044Z,13.93
2019-03-06T14:24:18.049Z,16.83
2019-03-06T14:26:48.949Z,13.60
2019-03-06T14:29:19.689Z,11.07
2019-03-06T14:31:50.653Z,16.73
2019-03-06T14:34:21.484Z,16.53
2019-03-06T14:36:52.188Z,27.23
2019-03-06T14:39:31.103Z,11.70
2019-03-06T14:42:02.619Z,17.30
2019-03-06T14:44:33.559Z,33.10
2019-03-06T14:47:04.478Z,19.80
2019-03-06T14:49:35.544Z,19.67
2019-03-06T14:52:07.531Z,19.77
2019-03-06T14:54:38.634Z,18.80
2019-03-06T14:57:09.414Z,15.67
2019-03-06T14:59:40.208Z,16.47
2019-03-06T15:02:11.374Z,34.83
2019-03-06T15:04:42.239Z,18.27
2019-03-06T15:07:12.934Z,19.23
2019-03-06T15:09:43.704Z,16.43
2019-03-06T15:12:14.519Z,17.50
2019-03-06T15:14:45.514Z,14.50
2019-03-06T15:17:16.513Z,14.07
2019-03-06T15:19:47.318Z,15.07
2019-03-06T15:22:18.073Z,16.67
2019-03-06T15:24:49.604Z,21.27
2019-03-06T15:27:20.619Z,26.20
2019-03-06T15:29:51.435Z,15.30
2019-03-06T15:32:22.298Z,12.83
2019-03-06T15:34:53.119Z,15.87
2019-03-06T15:37:23.894Z,16.50
2019-03-06T15:39:55.075Z,16.33
2019-03-06T15:42:26.109Z,17.50
2019-03-06T15:44:56.969Z,18.90
2019-03-06T15:47:33.585Z,13.80
2019-03-06T15:50:00.454Z,17.13
2019-03-06T15:52:31.645Z,16.70
2019-03-06T15:55:02.455Z,22.27
2019-03-06T15:57:34.025Z,23.53
2019-03-06T16:00:05.541Z,24.67
2019-03-06T16:02:36.374Z,20.23
2019-03-06T16:05:08.099Z,20.90
2019-03-06T16:07:39.025Z,20.57
2019-03-06T16:10:10.489Z,19.00
2019-03-06T16:12:41.510Z,19.23
2019-03-06T16:15:12.424Z,23.40
2019-03-06T16:17:43.649Z,19.00
2019-03-06T16:20:16.960Z,20.57
2019-03-06T16:22:48.552Z,17.03
2019-03-06T16:25:19.526Z,24.17
2019-03-06T16:27:50.569Z,22.33
2019-03-06T16:30:21.944Z,19.33
2019-03-06T16:32:52.796Z,23.10
2019-03-06T16:35:24.180Z,21.60
2019-03-06T16:37:55.194Z,21.37
2019-03-06T16:40:26.731Z,26.10
2019-03-06T16:42:57.704Z,24.67
2019-03-06T16:45:28.903Z,24.47
2019-03-06T16:48:01.350Z,26.80
2019-03-06T16:50:32.325Z,27.13
2019-03-06T16:53:04.115Z,18.57
2019-03-06T16:55:34.891Z,23.27
2019-03-06T16:58:06.035Z,24.60
2019-03-06T17:00:37.382Z,30.90
2019-03-06T17:03:08.201Z,25.60
2019-03-06T17:05:39.434Z,26.20
2019-03-06T17:08:11.049Z,21.40
2019-03-06T17:10:41.919Z,25.50
2019-03-06T17:13:12.810Z,23.33
2019-03-06T17:15:43.766Z,22.23
2019-03-06T17:18:14.810Z,23.90
2019-03-06T17:20:46.025Z,23.70
2019-03-06T17:23:17.094Z,23.13
2019-03-06T17:25:48.054Z,24.67
2019-03-06T17:28:19.065Z,27.43
2019-03-06T17:30:50.115Z,35.53
2019-03-06T17:33:21.319Z,39.30
2019-03-06T17:35:51.996Z,33.00
2019-03-06T17:38:23.065Z,27.00
2019-03-06T17:40:53.984Z,29.00
2019-03-06T17:43:24.968Z,26.50
2019-03-06T17:45:55.899Z,26.53
2019-03-06T17:48:26.799Z,26.23
2019-03-06T17:50:57.655Z,26.13
2019-03-06T17:53:28.830Z,25.20
2019-03-06T17:55:59.969Z,25.17
2019-03-06T17:58:30.885Z,24.37
2019-03-06T18:01:07.974Z,30.07
2019-03-06T18:03:57.554Z,28.60
2019-03-06T18:06:28.584Z,25.33
2019-03-06T18:08:59.508Z,30.30
2019-03-06T18:11:30.444Z,36.00
2019-03-06T18:14:01.482Z,33.93
2019-03-06T18:16:32.399Z,27.60
2019-03-06T18:19:03.320Z,28.80
2019-03-06T18:21:34.499Z,28.37
2019-03-06T18:24:06.079Z,35.10
2019-03-06T18:26:38.015Z,35.00
2019-03-06T18:29:09.109Z,45.47
2019-03-06T18:31:40.235Z,32.03
2019-03-06T18:34:11.079Z,39.90
2019-03-06T18:36:42.014Z,41.97
2019-03-06T18:39:18.549Z,36.03
2019-03-06T18:41:49.665Z,39.40
2019-03-06T18:44:20.639Z,39.60
2019-03-06T18:46:51.649Z,34.67
2019-03-06T18:49:22.754Z,39.10
2019-03-06T18:51:53.915Z,36.90
2019-03-06T18:54:24.974Z,47.47
2019-03-06T18:56:55.774Z,40.33
2019-03-06T18:59:26.764Z,43.80
2019-03-06T19:01:57.849Z,39.00
2019-03-06T19:04:28.794Z,43.03
2019-03-06T19:06:59.834Z,45.67
2019-03-06T19:09:31.074Z,43.10
2019-03-06T19:12:02.094Z,39.80
2019-03-06T19:14:33.150Z,43.40
2019-03-06T19:17:04.260Z,48.83
2019-03-06T19:19:35.441Z,50.27
2019-03-06T19:22:06.694Z,37.10
2019-03-06T19:24:38.074Z,38.20
2019-03-06T19:27:09.219Z,41.97
2019-03-06T19:29:40.265Z,35.60
2019-03-06T19:32:11.330Z,45.40
2019-03-06T19:34:42.484Z,36.80
2019-03-06T19:37:13.349Z,40.87
2019-03-06T19:39:44.300Z,40.13
2019-03-06T19:42:15.404Z,40.03
2019-03-06T19:44:46.391Z,40.17
2019-03-06T19:47:17.510Z,42.80
2019-03-06T19:49:48.664Z,38.33
2019-03-06T19:52:19.599Z,44.73
2019-03-06T19:54:50.999Z,42.53
2019-03-06T19:57:22.039Z,36.90
2019-03-06T19:59:53.219Z,43.47
2019-03-06T20:02:24.431Z,40.43
2019-03-06T20:04:55.579Z,41.93
2019-03-06T20:07:26.611Z,42.63
2019-03-06T20:09:57.594Z,44.17
2019-03-06T20:12:28.465Z,43.63
2019-03-06T20:14:59.639Z,46.23
2019-03-06T20:17:30.992Z,47.13
2019-03-06T20:20:01.984Z,46.00
2019-03-06T20:22:33.071Z,45.53
2019-03-06T20:25:04.319Z,52.70
2019-03-06T20:27:35.515Z,48.30
2019-03-06T20:30:07.117Z,46.27
2019-03-06T20:32:38.121Z,47.80
2019-03-06T20:35:09.765Z,43.27
2019-03-06T20:37:40.865Z,44.63
2019-03-06T20:40:12.194Z,53.33
2019-03-06T20:42:43.434Z,52.13
2019-03-06T20:45:15.299Z,48.57
2019-03-06T20:47:46.799Z,46.70
2019-03-06T20:50:18.080Z,52.87
2019-03-06T20:52:50.354Z,48.07
2019-03-06T20:55:22.015Z,45.60
2019-03-06T20:57:53.386Z,50.07
2019-03-06T21:00:24.935Z,46.43
2019-03-06T21:02:56.400Z,49.03
2019-03-06T21:05:27.439Z,52.90
2019-03-06T21:07:58.325Z,51.97
2019-03-06T21:10:29.734Z,51.57
2019-03-06T21:13:01.204Z,51.30
2019-03-06T21:15:32.800Z,51.17
2019-03-06T21:18:04.056Z,50.90
2019-03-06T21:20:35.143Z,51.57
2019-03-06T21:23:06.309Z,55.77
2019-03-06T21:25:37.855Z,48.93
2019-03-06T21:28:08.856Z,49.63
2019-03-06T21:30:41.096Z,49.03
2019-03-06T21:33:12.225Z,44.57
2019-03-06T21:35:44.310Z,51.93
2019-03-06T21:38:15.619Z,49.77
2019-03-06T21:40:47.190Z,48.93
2019-03-06T21:43:18.299Z,48.67
2019-03-06T21:45:49.398Z,50.93
2019-03-06T21:48:20.490Z,55.47
2019-03-06T21:50:51.866Z,46.30
2019-03-06T21:53:23.049Z,44.70
2019-03-06T21:55:54.189Z,44.90
2019-03-06T21:58:25.286Z,45.23
2019-03-06T22:00:56.145Z,47.07
2019-03-06T22:03:27.080Z,42.17
2019-03-06T22:05:57.839Z,44.50
2019-03-06T22:08:28.834Z,48.27
2019-03-06T22:10:59.784Z,48.87
2019-03-06T22:13:30.599Z,45.50
2019-03-06T22:16:01.594Z,51.03
2019-03-06T22:18:32.509Z,48.07
2019-03-06T22:21:03.239Z,47.43
2019-03-06T22:23:34.044Z,50.97
2019-03-06T22:26:04.839Z,52.97
2019-03-06T22:28:35.682Z,49.77
2019-03-06T22:31:06.770Z,44.47
2019-03-06T22:33:37.605Z,45.97
2019-03-06T22:36:08.499Z,45.80
2019-03-06T22:38:39.460Z,54.30
2019-03-06T22:41:10.384Z,45.97
2019-03-06T22:43:41.276Z,48.53
2019-03-06T22:46:12.198Z,49.27
2019-03-06T22:48:43.154Z,42.97
2019-03-06T22:51:14.159Z,45.77
2019-03-06T22:53:45.004Z,46.37
2019-03-06T22:56:16.039Z,50.63
2019-03-06T22:58:46.974Z,42.67
2019-03-06T23:01:24.739Z,49.63
2019-03-06T23:03:55.939Z,50.87
2019-03-06T23:06:26.770Z,47.07
2019-03-06T23:08:57.665Z,50.20
2019-03-06T23:11:28.549Z,42.87
2019-03-06T23:13:59.449Z,48.17
2019-03-06T23:16:30.289Z,41.10
2019-03-06T23:19:01.279Z,43.27
2019-03-06T23:21:32.084Z,50.33
2019-03-06T23:24:03.044Z,43.57
2019-03-06T23:26:42.451Z,43.43
2019-03-06T23:29:06.439Z,40.67
2019-03-06T23:31:37.399Z,42.67
2019-03-06T23:34:08.194Z,41.53
2019-03-06T23:36:39.083Z,42.60
2019-03-06T23:39:15.669Z,40.63
2019-03-06T23:41:46.591Z,41.80
2019-03-06T23:44:17.884Z,39.90
2019-03-06T23:46:48.716Z,41.10
2019-03-06T23:49:19.529Z,48.87
2019-03-06T23:51:54.519Z,46.13
2019-03-06T23:54:25.295Z,40.70
2019-03-06T23:56:56.474Z,43.10
2019-03-06T23:59:27.259Z,48.63
